Time;durP1;ratioP1;P1;durP2;ratioP2;P2;SDS_P1;SDS_P2;PMS_P1;PMS_P2;Temp;Humidity;BMP_temperature;BMP_pressure;BME280_temperature;BME280_humidity;BME280_pressure;Samples;Min_cycle;Max_cycle;Signal;HPM_P1;HPM_P2
2023/01/02 00:01:28;;;;;;;16.55;3.35;;;10.80;99.90;;;10.94;98.77;100001.75;4962806;28;20241;-74
2023/01/02 00:03:55;;;;;;;19.80;3.85;;;10.90;99.90;;;10.91;98.59;100002.63;4964292;28;20292;-74
2023/01/02 00:06:23;;;;;;;24.50;4.82;;;10.80;99.90;;;10.89;98.63;99994.69;4959181;28;20595;-74
2023/01/02 00:08:50;;;;;;;16.10;3.40;;;10.80;99.90;;;10.85;98.74;99986.75;4959603;28;20229;-74
2023/01/02 00:11:18;;;;;;;19.05;4.00;;;10.80;99.90;;;10.83;98.94;99997.31;4953771;28;20239;-74
2023/01/02 00:13:45;;;;;;;19.65;4.22;;;10.80;99.90;;;10.90;98.75;99992.91;4960629;28;20225;-74
2023/01/02 00:16:13;;;;;;;18.63;3.75;;;10.80;99.90;;;10.91;98.51;99989.41;4962318;28;20244;-74
2023/01/02 00:18:40;;;;;;;20.38;4.18;;;10.80;99.90;;;10.89;98.26;99999.09;4958146;28;20232;-74
2023/01/02 00:21:08;;;;;;;15.52;3.47;;;10.80;99.90;;;10.87;98.43;99991.16;4959131;28;20240;-73
2023/01/02 00:23:36;;;;;;;16.95;3.70;;;10.80;99.90;;;10.93;98.44;99994.69;4955788;28;20291;-74
2023/01/02 00:26:03;;;;;;;16.52;3.42;;;10.80;99.90;;;10.99;97.62;99984.09;4957658;28;20225;-74
2023/01/02 00:28:32;;;;;;;20.48;4.13;;;10.90;99.90;;;11.04;97.30;99972.63;4960234;28;20701;-74
2023/01/02 00:31:12;;;;;;;14.95;3.13;;;11.00;99.90;;;11.04;96.88;99964.69;4960533;28;20323;-75
2023/01/02 00:33:39;;;;;;;21.77;4.55;;;11.00;99.90;;;11.05;97.07;99960.28;4960093;28;20232;-75
2023/01/02 00:36:11;;;;;;;18.42;3.92;;;11.00;99.90;;;10.99;97.02;99965.59;4961056;28;20233;-76
2023/01/02 00:38:39;;;;;;;9.38;2.03;;;10.90;99.90;;;11.02;97.14;99973.53;4960665;28;20252;-76
2023/01/02 00:41:06;;;;;;;17.95;3.70;;;10.90;99.90;;;11.00;96.97;99970.88;4966570;28;20318;-75
2023/01/02 00:43:35;;;;;;;19.08;3.97;;;10.90;99.90;;;11.02;96.89;99969.13;4961796;28;20295;-74
2023/01/02 00:46:02;;;;;;;18.45;3.72;;;10.90;99.90;;;11.04;96.37;99970.00;4960776;28;20587;-75
2023/01/02 00:48:37;;;;;;;19.75;4.07;;;11.00;99.90;;;11.05;96.03;99960.28;4961103;28;20232;-75
2023/01/02 00:51:05;;;;;;;11.65;2.92;;;11.00;99.90;;;11.10;95.80;99963.81;4960883;28;20236;-74
2023/01/02 00:53:32;;;;;;;13.50;2.88;;;11.00;99.90;;;11.00;96.14;99954.13;4969984;28;20257;-75
2023/01/02 00:55:59;;;;;;;13.57;2.85;;;11.00;99.90;;;11.00;95.95;99955.00;4966482;28;20245;-74
2023/01/02 00:58:26;;;;;;;10.25;2.35;;;10.90;99.90;;;10.95;96.13;99951.47;4963247;28;20303;-74
2023/01/02 01:00:53;;;;;;;19.42;4.35;;;10.90;99.90;;;10.98;96.08;99954.13;4963692;28;20323;-74
2023/01/02 01:03:20;;;;;;;16.42;3.55;;;10.90;99.90;;;10.90;95.99;99950.59;4961481;28;20229;-75
2023/01/02 01:05:47;;;;;;;12.90;2.95;;;10.80;99.90;;;10.82;96.73;99963.81;4965082;28;20275;-74
2023/01/02 01:08:14;;;;;;;17.92;3.78;;;10.80;99.90;;;10.82;96.96;99961.19;4969887;28;20727;-74
2023/01/02 01:10:41;;;;;;;13.70;2.95;;;10.80;99.90;;;10.86;97.18;99962.06;4961211;28;20343;-75
2023/01/02 01:13:08;;;;;;;18.75;3.85;;;10.80;99.90;;;10.87;96.86;99956.78;4962128;28;20291;-75
2023/01/02 01:15:35;;;;;;;28.13;5.90;;;10.80;99.90;;;10.89;96.48;99949.72;4955701;28;20297;-74
2023/01/02 01:18:02;;;;;;;21.95;4.45;;;10.80;99.90;;;10.86;96.53;99940.91;4956144;28;20232;-75
2023/01/02 01:20:29;;;;;;;24.00;5.07;;;10.80;99.90;;;10.76;96.92;99942.66;4953618;28;20760;-75
2023/01/02 01:22:56;;;;;;;19.13;3.97;;;10.70;99.90;;;10.83;96.65;99949.72;4955441;28;20285;-75
2023/01/02 01:25:23;;;;;;;15.93;3.53;;;10.80;99.90;;;10.79;96.81;99947.06;4961379;28;20256;-75
2023/01/02 01:27:53;;;;;;;14.57;3.20;;;10.70;99.90;;;10.77;96.77;99949.72;4960581;28;20237;-74
2023/01/02 01:30:20;;;;;;;17.23;3.72;;;10.70;99.90;;;10.71;97.18;99949.72;4962163;28;20241;-74
2023/01/02 01:32:47;;;;;;;23.05;5.43;;;10.70;99.90;;;10.71;97.06;99949.72;4960188;28;20225;-76
2023/01/02 01:35:14;;;;;;;18.50;3.95;;;10.70;99.90;;;10.68;97.26;99944.41;4959485;28;20237;-77
2023/01/02 01:37:41;;;;;;;16.65;3.60;;;10.60;99.90;;;10.61;97.57;99955.00;4962039;28;20295;-75
2023/01/02 01:40:09;;;;;;;18.08;3.80;;;10.60;99.90;;;10.60;97.62;99953.22;4957990;28;20229;-76
2023/01/02 01:42:36;;;;;;;17.58;3.72;;;10.60;99.90;;;10.58;97.90;99958.50;4961292;28;20262;-75
2023/01/02 01:45:11;;;;;;;12.75;2.72;;;10.50;99.90;;;10.53;98.33;99958.50;4962071;28;20291;-74
2023/01/02 01:47:51;;;;;;;16.90;3.50;;;10.50;99.90;;;10.50;98.39;99958.50;4957259;28;20228;-75
2023/01/02 01:50:31;;;;;;;16.08;3.38;;;10.40;99.90;;;10.44;99.02;99960.25;4959822;28;20659;-75
2023/01/02 01:53:15;;;;;;;17.15;3.58;;;10.40;99.90;;;10.42;99.10;99962.88;4956930;28;20249;-74
2023/01/02 01:55:49;;;;;;;13.43;3.00;;;10.40;99.90;;;10.26;99.73;99958.41;4956239;28;20260;-74
2023/01/02 01:58:30;;;;;;;15.05;3.35;;;10.30;99.90;;;10.19;100.00;99956.59;4959728;28;20232;-75
2023/01/02 02:00:57;;;;;;;20.63;4.43;;;10.20;99.90;;;10.15;100.00;99973.31;4956996;28;20260;-75
2023/01/02 02:03:29;;;;;;;17.65;3.75;;;10.10;99.90;;;10.07;100.00;99967.13;4964232;28;20233;-75
2023/01/02 02:05:58;;;;;;;15.63;3.25;;;10.10;99.90;;;10.08;100.00;99982.09;4963082;28;20233;-75
2023/01/02 02:08:35;;;;;;;23.98;5.07;;;10.00;99.90;;;9.98;100.00;99967.97;4947184;28;20610;-75
2023/01/02 02:11:03;;;;;;;18.05;3.78;;;9.90;99.90;;;10.04;100.00;99972.41;4960397;28;20264;-75
2023/01/02 02:13:32;;;;;;;17.60;3.75;;;9.90;99.90;;;10.12;100.00;99965.38;4962437;28;20233;-75
2023/01/02 02:16:14;;;;;;;20.52;4.45;;;10.00;99.90;;;10.19;100.00;99962.75;4963907;28;20644;-75
2023/01/02 02:18:49;;;;;;;17.27;3.55;;;10.10;99.90;;;10.29;100.00;99957.53;4964543;28;20685;-74
2023/01/02 02:21:42;;;;;;;15.23;3.28;;;10.20;99.90;;;10.30;100.00;99957.53;4964700;28;20297;-76
2023/01/02 02:24:47;;;;;;;17.00;3.65;;;10.20;99.90;;;10.29;100.00;99939.91;4978189;28;20229;-75
2023/01/02 02:27:50;;;;;;;16.00;3.60;;;10.20;99.90;;;10.35;100.00;99949.63;4962169;28;20260;-75
2023/01/02 02:30:42;;;;;;;17.58;3.85;;;10.30;99.90;;;10.25;100.00;99928.47;4961652;28;20244;-74
2023/01/02 02:33:20;;;;;;;17.33;3.70;;;10.20;99.90;;;10.21;100.00;99918.75;4962616;28;20312;-76
2023/01/02 02:36:00;;;;;;;19.05;4.07;;;10.10;99.90;;;10.21;100.00;99949.59;4964454;28;20365;-74
2023/01/02 02:39:03;;;;;;;26.02;5.22;;;10.10;99.90;;;10.15;100.00;99952.19;4960321;28;20602;-75
2023/01/02 02:41:34;;;;;;;17.77;3.72;;;10.10;99.90;;;10.18;100.00;99955.72;4962318;28;20260;-75
2023/01/02 02:44:11;;;;;;;20.27;4.68;;;10.10;99.90;;;10.24;100.00;99962.81;4962726;28;20225;-74
2023/01/02 02:46:56;;;;;;;15.43;3.33;;;10.20;99.90;;;10.21;100.00;99950.47;4963015;28;20221;-75
2023/01/02 02:49:45;;;;;;;25.15;5.25;;;10.20;99.90;;;10.10;100.00;99952.16;4959204;28;20233;-75
2023/01/02 02:52:43;;;;;;;14.00;3.00;;;10.10;99.90;;;10.15;100.00;99954.81;4976694;28;20284;-77
2023/01/02 02:55:38;;;;;;;19.60;3.95;;;10.10;99.90;;;10.18;100.00;99949.53;4964041;28;20287;-74
2023/01/02 02:58:06;;;;;;;20.65;4.70;;;10.10;99.90;;;10.15;100.00;99954.81;4952868;28;20256;-77
2023/01/02 03:00:33;;;;;;;13.60;2.88;;;10.10;99.90;;;10.07;100.00;99941.59;4959890;28;20249;-74
2023/01/02 03:03:00;;;;;;;19.83;4.18;;;10.10;99.90;;;10.00;100.00;99946.84;4963613;28;20287;-75
2023/01/02 03:05:38;;;;;;;22.08;4.65;;;10.00;99.90;;;10.08;100.00;99951.28;4961217;28;20368;-74
2023/01/02 03:08:17;;;;;;;16.45;3.45;;;10.00;99.90;;;10.11;100.00;99942.47;4963868;28;20252;-77
2023/01/02 03:10:59;;;;;;;14.68;3.28;;;10.00;99.90;;;10.08;100.00;99947.75;4962037;28;20703;-75
2023/01/02 03:13:42;;;;;;;14.70;3.28;;;10.00;99.90;;;10.16;100.00;99948.66;4960271;28;20241;-75
2023/01/02 03:16:22;;;;;;;19.85;4.10;;;10.00;99.90;;;10.38;100.00;99953.16;4962931;28;20726;-75
2023/01/02 03:19:10;;;;;;;22.60;4.63;;;10.20;99.90;;;10.49;100.00;99932.94;4964227;28;20229;-74
2023/01/02 03:21:54;;;;;;;13.70;2.78;;;10.40;99.90;;;10.72;99.51;99922.38;4962973;28;20767;-75
2023/01/02 03:24:23;;;;;;;19.77;4.10;;;10.50;99.90;;;10.71;98.67;99901.22;4963449;28;20337;-75
2023/01/02 03:26:57;;;;;;;20.23;4.20;;;10.60;99.90;;;10.74;97.94;99907.41;4961208;28;20352;-74
2023/01/02 03:29:40;;;;;;;26.10;5.22;;;10.60;99.90;;;10.71;97.36;99888.00;4959240;28;20299;-76
2023/01/02 03:32:19;;;;;;;12.77;2.72;;;10.70;99.90;;;10.69;96.65;99890.66;4959531;28;20229;-74
2023/01/02 03:34:48;;;;;;;14.68;3.22;;;10.60;99.90;;;10.60;97.11;99895.06;4949021;28;20319;-75
2023/01/02 03:37:23;;;;;;;18.65;3.85;;;10.50;99.90;;;10.63;96.88;99903.00;4970177;28;20229;-75
2023/01/02 03:39:57;;;;;;;9.18;2.05;;;10.60;99.90;;;10.64;96.81;99895.06;4961526;28;20229;-76
2023/01/02 03:42:32;;;;;;;17.80;3.80;;;10.60;99.90;;;10.53;96.95;99889.75;4959193;28;20240;-75
2023/01/02 03:45:13;;;;;;;14.98;3.13;;;10.50;99.90;;;10.46;97.65;99903.84;4957654;28;20249;-76
2023/01/02 03:47:56;;;;;;;21.88;4.53;;;10.40;99.90;;;10.46;97.51;99919.72;4959810;28;20229;-75
2023/01/02 03:50:52;;;;;;;14.73;3.25;;;10.40;99.90;;;10.41;97.64;99913.53;4959367;28;20235;-75
2023/01/02 03:53:20;;;;;;;13.35;3.03;;;10.40;99.90;;;10.35;97.98;99910.88;4961268;28;20295;-74
2023/01/02 03:56:31;;;;;;;19.95;4.25;;;10.30;99.90;;;10.34;97.86;99911.75;4965040;28;20601;-75
2023/01/02 03:59:27;;;;;;;10.63;2.22;;;10.30;99.90;;;10.29;98.39;99921.44;4948778;28;20737;-75
2023/01/02 04:02:04;;;;;;;11.30;2.60;;;10.30;99.90;;;10.27;98.70;99929.34;4968314;28;20233;-76
2023/01/02 04:05:00;;;;;;;10.93;2.47;;;10.20;99.90;;;10.30;98.39;99933.75;4967511;28;20237;-77
2023/01/02 04:07:43;;;;;;;12.52;2.92;;;10.20;99.90;;;10.24;98.76;99931.97;4966340;28;20261;-77
2023/01/02 04:10:13;;;;;;;20.83;4.38;;;10.20;99.90;;;10.17;98.98;99937.22;4960355;28;20257;-77
2023/01/02 04:12:46;;;;;;;17.75;3.67;;;10.10;99.90;;;10.16;98.95;99936.34;4964842;28;20225;-78
2023/01/02 04:15:16;;;;;;;19.58;4.00;;;10.10;99.90;;;10.21;98.60;99942.53;4965173;28;20725;-77
2023/01/02 04:18:07;;;;;;;24.70;4.95;;;10.10;99.90;;;10.38;97.43;99923.19;4963600;28;20615;-78
2023/01/02 04:20:41;;;;;;;18.25;3.67;;;10.30;99.90;;;10.29;97.21;99900.28;4964538;28;20241;-78
2023/01/02 04:23:16;;;;;;;13.27;2.83;;;10.30;99.90;;;10.29;96.11;99892.34;4993296;28;20280;-77
2023/01/02 04:25:57;;;;;;;23.45;4.82;;;10.30;99.90;;;10.18;96.51;99883.50;4960348;28;20259;-77
2023/01/02 04:28:28;;;;;;;18.00;3.78;;;10.10;99.90;;;10.30;95.82;99882.66;4962543;28;20237;-77
2023/01/02 04:31:14;;;;;;;23.10;4.80;;;10.20;99.90;;;10.26;95.15;99869.44;4946289;28;20283;-78
2023/01/02 04:33:52;;;;;;;11.80;2.50;;;10.20;99.90;;;10.29;95.19;99865.91;4962885;28;20252;-77
2023/01/02 04:36:21;;;;;;;14.40;3.17;;;10.20;99.90;;;10.17;95.14;99865.88;4966887;28;20232;-78
2023/01/02 04:38:48;;;;;;;25.13;5.05;;;10.10;99.90;;;10.25;95.24;99874.72;4967110;28;20225;-78
2023/01/02 04:41:25;;;;;;;19.63;4.10;;;10.10;99.90;;;10.26;94.86;99868.56;4963325;28;20708;-78
2023/01/02 04:43:55;;;;;;;17.85;4.25;;;10.20;99.90;;;10.30;94.48;99854.47;4959761;28;20232;-78
2023/01/02 04:46:24;;;;;;;17.75;3.72;;;10.30;99.90;;;10.21;94.77;99854.47;4966712;28;20248;-78
2023/01/02 04:48:53;;;;;;;22.42;4.97;;;10.10;99.90;;;10.29;94.22;99863.28;4966422;28;20698;-79
2023/01/02 04:51:20;;;;;;;16.67;3.58;;;10.20;99.90;;;10.27;94.21;99865.03;4960215;28;20237;-79
2023/01/02 04:53:52;;;;;;;20.48;4.22;;;10.20;99.90;;;10.12;94.76;99865.00;4961124;28;20240;-78
2023/01/02 04:56:19;;;;;;;23.00;4.65;;;10.10;99.90;;;10.09;95.31;99883.47;4959963;28;20256;-78
2023/01/02 04:58:47;;;;;;;21.92;4.55;;;10.00;99.90;;;10.30;94.40;99886.19;4957839;28;20263;-79
2023/01/02 05:01:18;;;;;;;26.17;5.25;;;10.10;99.90;;;10.20;94.51;99872.06;4954856;28;20253;-78
2023/01/02 05:03:48;;;;;;;31.27;6.18;;;10.10;99.90;;;10.21;94.11;99870.31;4956387;28;20232;-79
2023/01/02 05:06:15;;;;;;;39.15;7.75;;;10.10;99.90;;;10.09;94.47;99873.78;4957680;28;20222;-79
2023/01/02 05:08:43;;;;;;;19.55;4.00;;;10.10;99.90;;;10.15;94.50;99884.38;4957608;28;20251;-78
2023/01/02 05:11:14;;;;;;;27.50;5.40;;;10.10;99.90;;;10.13;94.57;99877.31;4956120;28;20720;-79
2023/01/02 05:13:41;;;;;;;13.90;2.88;;;10.10;99.90;;;10.07;95.01;99872.91;4960848;28;20275;-78
2023/01/02 05:16:11;;;;;;;18.45;3.78;;;10.00;99.90;;;10.04;94.59;99879.94;4958901;28;20234;-78
2023/01/02 05:18:38;;;;;;;14.50;3.22;;;10.00;99.90;;;10.08;94.59;99882.59;4944301;28;20287;-78
2023/01/02 05:24:01;;;;;;;17.35;3.55;;;10.00;99.90;;;10.00;94.13;99880.81;4957977;28;20288;-78
2023/01/02 05:26:31;;;;;;;20.70;4.22;;;9.90;99.90;;;9.91;94.42;99897.53;4957694;28;20430;-78
2023/01/02 05:29:00;;;;;;;14.77;3.08;;;9.90;99.90;;;9.85;94.78;99898.38;4956839;28;20381;-78
2023/01/02 05:31:27;;;;;;;19.55;4.07;;;9.80;99.90;;;9.86;94.67;99913.34;4959335;28;20295;-78
2023/01/02 05:33:57;;;;;;;15.23;3.28;;;9.80;99.90;;;9.88;94.88;99916.00;4958849;28;20262;-79
2023/01/02 05:36:26;;;;;;;22.58;4.70;;;9.80;99.90;;;9.95;94.57;99910.75;4957978;28;20585;-78
2023/01/02 05:38:54;;;;;;;17.45;3.75;;;9.90;99.90;;;10.03;93.90;99910.75;4956983;28;20256;-77
2023/01/02 05:41:23;;;;;;;25.25;5.10;;;9.90;99.90;;;9.98;93.94;99898.41;4955551;28;20303;-76
2023/01/02 05:43:51;;;;;;;19.83;4.07;;;9.90;99.90;;;9.89;94.07;99897.50;4958623;28;20268;-75
2023/01/02 05:46:20;;;;;;;41.35;8.13;;;9.90;99.90;;;9.89;94.12;99908.06;4976590;23;20787;-76
2023/01/02 05:48:47;;;;;;;23.65;4.63;;;9.80;99.90;;;9.93;94.14;99915.13;4960042;28;20229;-77
2023/01/02 05:51:16;;;;;;;22.25;4.63;;;9.90;99.90;;;10.00;94.00;99905.47;4957033;28;20236;-77
2023/01/02 05:53:44;;;;;;;26.42;5.53;;;9.90;99.90;;;9.93;93.90;99901.03;4954146;28;20292;-77
2023/01/02 05:56:16;;;;;;;20.17;4.10;;;9.90;99.90;;;10.03;93.65;99902.84;4955323;28;20226;-76
2023/01/02 05:58:46;;;;;;;15.68;3.28;;;10.00;99.90;;;10.10;93.07;99899.31;4957295;28;20736;-77
2023/01/02 06:01:15;;;;;;;23.67;4.85;;;10.00;99.90;;;10.07;93.04;99898.44;4956555;28;20241;-77
2023/01/02 06:03:50;;;;;;;17.52;3.70;;;10.00;99.90;;;10.11;93.03;99894.94;4961721;28;20224;-78
2023/01/02 06:06:21;;;;;;;16.42;3.60;;;10.00;99.90;;;10.15;92.60;99894.06;4955357;28;20625;-78
2023/01/02 06:08:49;;;;;;;17.73;3.75;;;10.10;99.90;;;10.22;91.96;99890.56;4954511;28;20234;-77
2023/01/02 06:11:17;;;;;;;17.02;4.35;;;10.10;99.90;;;10.24;91.80;99892.34;4953555;28;20238;-79
2023/01/02 06:13:44;;;;;;;8.57;1.83;;;10.20;99.90;;;10.19;92.15;99882.63;4947466;28;20332;-79
2023/01/02 06:16:14;;;;;;;30.00;6.03;;;10.10;99.90;;;10.38;90.64;99875.63;4954641;28;20229;-77
2023/01/02 06:18:41;;;;;;;39.88;7.80;;;10.30;99.90;;;10.49;89.55;99871.25;4950778;28;20263;-79
2023/01/02 06:21:13;;;;;;;19.00;3.90;;;10.40;99.90;;;10.73;88.23;99858.03;4953902;28;20283;-79
2023/01/02 06:23:41;;;;;;;21.75;4.35;;;10.60;99.90;;;10.96;86.06;99831.53;4953694;28;20611;-79
2023/01/02 06:26:17;;;;;;;25.02;4.93;;;10.80;99.90;;;11.08;84.56;99785.66;4950803;28;20267;-77
2023/01/02 06:28:48;;;;;;;22.45;4.57;;;10.90;99.90;;;11.15;83.27;99758.28;4954846;28;20296;-78
2023/01/02 06:31:18;;;;;;;36.28;7.07;;;11.00;99.90;;;11.32;81.70;99707.91;4955806;28;20975;-77
2023/01/02 06:33:46;;;;;;;16.10;3.35;;;11.20;99.90;;;11.14;81.42;99685.06;4959686;28;20245;-77
2023/01/02 06:36:17;;;;;;;22.50;4.65;;;11.10;99.90;;;11.10;81.51;99676.28;4951265;28;20280;-77
2023/01/02 06:38:45;;;;;;;18.63;3.88;;;11.00;99.90;;;11.11;81.04;99666.56;4953984;28;20237;-77
2023/01/02 06:41:13;;;;;;;17.55;3.67;;;11.00;99.90;;;11.20;80.34;99650.63;4954613;28;20237;-78
2023/01/02 06:43:43;;;;;;;27.10;5.35;;;11.10;99.90;;;11.29;79.25;99633.81;4955922;28;20241;-77
2023/01/02 06:46:13;;;;;;;20.63;4.18;;;11.20;99.90;;;11.18;79.74;99621.53;4951625;28;20780;-77
2023/01/02 06:48:41;;;;;;;14.98;3.42;;;11.10;99.90;;;11.14;79.49;99625.09;4961297;28;20238;-77
2023/01/02 06:51:14;;;;;;;25.17;5.15;;;11.10;99.90;;;11.05;79.70;99622.50;4947915;28;20269;-77
2023/01/02 06:53:43;;;;;;;33.80;6.57;;;11.10;99.90;;;11.42;78.58;99632.84;4943731;28;20238;-79
2023/01/02 06:56:12;;;;;;;39.38;7.78;;;11.30;99.90;;;11.35;77.62;99567.59;4937327;28;20232;-79
2023/01/02 06:58:39;;;;;;;23.15;4.65;;;11.30;99.90;;;11.63;76.72;99587.66;4950244;28;20241;-78
2023/01/02 07:01:17;;;;;;;24.55;4.95;;;11.40;99.90;;;11.62;76.16;99524.13;4941369;28;20237;-78
2023/01/02 07:03:44;;;;;;;25.92;5.15;;;11.50;99.90;;;11.69;75.23;99502.84;4954020;28;20224;-79
2023/01/02 07:06:18;;;;;;;19.08;3.90;;;11.60;99.90;;;11.78;74.63;99483.41;4958169;28;20236;-79
2023/01/02 07:08:46;;;;;;;22.60;4.65;;;11.60;99.90;;;11.67;74.96;99461.38;4952401;28;20232;-78
2023/01/02 07:11:20;;;;;;;20.00;4.15;;;11.60;99.90;;;11.71;74.60;99457.84;4941241;28;20315;-76
2023/01/02 07:13:50;;;;;;;24.45;5.18;;;11.80;99.90;;;11.86;73.71;99431.22;4936935;28;20238;-77
2023/01/02 07:16:19;;;;;;;24.55;4.72;;;11.80;99.90;;;12.21;72.59;99411.31;4935800;28;20715;-77
2023/01/02 07:18:47;;;;;;;23.92;4.65;;;12.00;99.90;;;12.41;71.35;99380.97;4959844;28;20244;-78
2023/01/02 07:21:15;;;;;;;26.60;5.28;;;12.40;99.90;;;12.59;70.79;99365.69;4945756;28;20247;-77
2023/01/02 07:23:42;;;;;;;22.20;4.35;;;12.30;99.90;;;12.51;70.14;99326.03;4940706;28;20316;-76
2023/01/02 07:26:11;;;;;;;15.90;3.25;;;12.40;99.90;;;12.64;69.84;99318.75;4945743;28;20224;-77
2023/01/02 07:28:38;;;;;;;20.08;4.53;;;12.50;99.90;;;12.65;69.66;99308.09;4958725;28;20240;-75
2023/01/02 07:31:17;;;;;;;21.40;4.25;;;12.60;99.90;;;13.08;68.38;99283.47;4964133;28;20300;-76
2023/01/02 07:33:45;;;;;;;18.95;3.67;;;12.90;99.90;;;13.11;67.85;99268.34;4964139;28;20284;-76
2023/01/02 07:36:16;;;;;;;21.08;4.15;;;12.90;99.90;;;13.12;67.40;99235.59;4965841;28;20244;-75
2023/01/02 07:38:44;;;;;;;19.95;4.00;;;13.10;99.90;;;13.12;67.39;99240.91;4962788;28;20201;-77
2023/01/02 07:41:16;;;;;;;18.85;3.80;;;13.00;99.90;;;12.91;68.37;99235.13;4954469;28;20237;-77
2023/01/02 07:43:45;;;;;;;26.25;5.22;;;12.80;99.90;;;12.87;68.75;99252.00;4955687;28;20651;-79
2023/01/02 07:46:14;;;;;;;22.40;4.43;;;12.80;99.90;;;12.75;69.14;99232.75;4951404;28;20257;-79
2023/01/02 07:48:42;;;;;;;21.90;4.40;;;12.70;99.90;;;13.13;67.64;99241.78;4961381;28;20225;-79
2023/01/02 07:51:10;;;;;;;18.08;3.70;;;12.90;99.90;;;13.04;67.93;99196.84;4953477;28;20229;-78
2023/01/02 07:53:40;;;;;;;17.00;3.45;;;13.00;99.90;;;13.01;67.91;99191.59;4939013;28;20328;-79
2023/01/02 07:56:08;;;;;;;12.95;2.70;;;12.90;99.90;;;13.06;68.00;99209.19;4953009;28;20667;-80
2023/01/02 07:58:36;;;;;;;19.50;3.85;;;12.90;99.90;;;12.99;68.04;99209.31;4937015;28;20268;-79
2023/01/02 08:01:11;;;;;;;20.55;4.07;;;12.90;99.90;;;12.82;69.35;99212.28;4936582;28;20257;-79
2023/01/02 08:03:39;;;;;;;13.95;2.78;;;12.80;99.90;;;12.63;70.06;99224.16;4944349;28;20233;-81
2023/01/02 08:06:15;;;;;;;16.52;3.42;;;12.60;99.90;;;12.80;69.83;99251.25;4937712;28;20237;-79
2023/01/02 08:08:43;;;;;;;11.30;2.63;;;12.70;99.90;;;12.68;70.68;99251.47;4937997;28;20287;-79
2023/01/02 08:11:14;;;;;;;15.75;3.33;;;12.60;99.90;;;12.45;71.80;99281.94;4924271;28;20252;-78
2023/01/02 08:13:43;;;;;;;13.15;2.75;;;12.40;99.90;;;12.42;71.92;99304.97;4936134;28;20240;-79
2023/01/02 08:16:19;;;;;;;26.38;5.57;;;12.30;99.90;;;12.53;71.16;99286.22;4938735;28;20229;-81
2023/01/02 08:18:50;;;;;;;16.90;3.40;;;12.40;99.90;;;12.49;71.32;99272.16;4919165;28;20588;-80
2023/01/02 08:21:17;;;;;;;17.58;3.25;;;12.40;99.90;;;12.47;71.64;99279.25;4939572;28;20275;-79
2023/01/02 08:23:44;;;;;;;27.25;5.38;;;12.50;99.90;;;12.65;71.07;99280.69;4955261;28;20731;-79
2023/01/02 08:26:12;;;;;;;12.80;2.63;;;12.50;99.90;;;12.73;70.73;99286.75;4939099;28;20230;-80
2023/01/02 08:28:40;;;;;;;23.75;4.75;;;12.50;99.90;;;13.23;68.71;99247.81;4951903;28;20243;-79
2023/01/02 08:31:14;;;;;;;42.33;8.20;;;13.00;99.90;;;13.20;68.56;99216.03;4950949;28;20249;-80
2023/01/02 08:33:41;;;;;;;9.50;2.15;;;13.10;99.90;;;13.26;68.42;99194.66;4952069;28;20325;-79
2023/01/02 08:36:13;;;;;;;14.70;3.05;;;13.90;99.90;;;13.14;69.35;99217.84;4936568;28;20229;-79
2023/01/02 08:38:40;;;;;;;17.40;3.55;;;13.10;99.90;;;13.40;68.55;99235.94;4931873;28;20272;-79
2023/01/02 08:41:08;;;;;;;14.43;2.95;;;13.20;99.90;;;13.59;68.02;99217.81;4937441;28;20233;-79
2023/01/02 08:43:35;;;;;;;13.52;2.85;;;13.40;99.90;;;13.83;66.75;99170.31;4936860;28;20233;-78
2023/01/02 08:46:06;;;;;;;16.40;3.40;;;13.70;99.90;;;13.75;66.97;99152.78;4939071;28;20608;-77
2023/01/02 08:48:34;;;;;;;11.55;2.38;;;13.60;99.90;;;13.80;66.69;99157.09;4931750;28;20243;-78
2023/01/02 08:51:03;;;;;;;13.70;2.85;;;13.70;99.90;;;13.75;67.18;99165.19;4944512;28;20241;-79
2023/01/02 08:53:33;;;;;;;22.90;4.72;;;13.50;99.90;;;13.65;67.97;99180.47;4935586;28;20244;-79
2023/01/02 08:56:27;;;;;;;15.63;3.20;;;13.50;99.90;;;13.63;68.06;99161.03;4938365;28;20287;-79
2023/01/02 08:58:59;;;;;;;26.48;5.38;;;12.80;99.90;;;13.56;68.29;99174.50;4938098;28;20236;-78
2023/01/02 09:01:28;;;;;;;22.65;4.72;;;13.40;99.90;;;13.52;68.61;99183.44;4953709;28;20272;-78
2023/01/02 09:03:56;;;;;;;16.02;3.40;;;13.40;99.90;;;13.42;69.84;99210.22;4938482;28;20236;-79
2023/01/02 09:06:26;;;;;;;15.93;3.33;;;13.30;99.90;;;13.24;71.29;99250.44;4934603;28;20232;-79
2023/01/02 09:08:56;;;;;;;12.05;2.80;;;13.20;99.90;;;13.04;71.79;99264.06;4939718;28;20311;-79
2023/01/02 09:11:35;;;;;;;9.75;2.20;;;13.00;99.90;;;13.21;71.41;99292.97;4938785;28;20249;-78
2023/01/02 09:14:04;;;;;;;16.73;3.40;;;13.00;99.90;;;13.54;70.00;99261.31;4954738;28;20304;-79
2023/01/02 09:16:31;;;;;;;14.13;2.88;;;13.30;99.90;;;13.62;69.49;99219.53;4967173;28;20233;-79
2023/01/02 09:19:00;;;;;;;16.63;3.53;;;13.50;99.90;;;13.51;70.24;99232.16;4969780;28;20294;-78
2023/01/02 09:21:28;;;;;;;11.90;2.60;;;13.40;99.90;;;13.52;70.27;99252.50;4946602;28;20336;-78
2023/01/02 09:23:56;;;;;;;12.07;2.55;;;13.40;99.90;;;14.07;68.40;99228.19;4957449;28;20237;-79
2023/01/02 09:26:23;;;;;;;14.32;3.05;;;13.80;99.90;;;14.08;67.56;99182.97;4966696;28;20229;-79
2023/01/02 09:28:50;;;;;;;14.95;3.15;;;13.90;99.90;;;14.05;68.02;99177.72;4957334;28;20293;-78
2023/01/02 09:31:19;;;;;;;13.07;2.80;;;13.90;99.90;;;14.21;67.21;99182.66;4982984;28;20267;-76
2023/01/02 09:33:46;;;;;;;17.60;3.72;;;14.10;99.90;;;14.28;67.56;99176.25;4942321;28;20292;-81
2023/01/02 09:36:17;;;;;;;13.65;2.80;;;14.10;99.90;;;14.30;67.44;99171.78;4956879;28;20257;-81
2023/01/02 09:38:54;;;;;;;13.38;2.97;;;14.20;99.90;;;14.52;66.40;99169.47;4963310;28;20256;-80
2023/01/02 09:41:27;;;;;;;12.45;2.72;;;14.30;99.90;;;14.73;65.86;99156.47;4966559;28;20259;-80
2023/01/02 09:44:21;;;;;;;21.85;4.43;;;14.50;99.90;;;14.72;66.30;99160.03;4958564;28;20241;-81
2023/01/02 09:47:16;;;;;;;17.05;3.60;;;14.60;99.90;;;14.74;67.41;99197.25;4961033;28;20257;-80
2023/01/02 09:49:53;;;;;;;12.25;2.65;;;14.60;99.90;;;14.97;66.60;99218.78;4955132;28;20237;-81
2023/01/02 09:52:51;;;;;;;19.80;4.10;;;14.70;99.90;;;15.03;67.23;99209.75;4961089;28;20225;-81
2023/01/02 09:55:43;;;;;;;29.80;5.65;;;14.80;99.90;;;15.26;66.27;99182.44;4958256;28;20296;-82
2023/01/02 09:58:36;;;;;;;13.65;2.78;;;15.00;99.90;;;15.52;64.78;99157.66;4967674;28;20229;-80
2023/01/02 10:01:12;;;;;;;13.50;2.83;;;15.30;99.90;;;15.68;64.35;99141.22;4950707;28;20265;-82
2023/01/02 10:04:33;;;;;;;11.82;2.53;;;15.30;99.90;;;15.62;64.65;99109.44;4941390;28;20324;-79
2023/01/02 10:07:32;;;;;;;13.43;2.88;;;15.40;99.90;;;15.66;64.89;99107.53;4930060;28;20251;-78
2023/01/02 10:10:12;;;;;;;32.03;5.65;;;14.70;99.90;;;15.82;64.14;99092.78;4931189;28;20316;-77
2023/01/02 10:13:20;;;;;;;9.45;2.05;;;15.70;99.90;;;15.79;63.93;99057.34;4937844;28;20224;-77
2023/01/02 10:16:01;;;;;;;8.45;1.88;;;15.70;99.90;;;15.79;64.56;99070.69;4946602;28;20233;-80
2023/01/02 10:18:39;;;;;;;8.02;1.95;;;15.60;99.90;;;15.73;64.55;99076.22;4939286;28;20244;-80
2023/01/02 10:21:14;;;;;;;12.73;2.70;;;15.60;99.90;;;15.67;64.76;99040.88;4953236;28;20281;-78
2023/01/02 10:24:10;;;;;;;9.40;2.00;;;15.60;99.90;;;15.54;64.97;99034.13;4969853;28;20225;-79
2023/01/02 10:26:45;;;;;;;8.98;1.95;;;15.40;99.90;;;15.57;65.11;99051.81;4966571;28;20319;-78
2023/01/02 10:29:27;;;;;;;10.27;2.22;;;15.40;99.90;;;15.37;66.08;99037.34;4970271;28;20282;-77
2023/01/02 10:32:06;;;;;;;14.45;3.17;;;15.30;99.90;;;15.38;66.27;99060.41;4979498;28;20236;-78
2023/01/02 10:34:54;;;;;;;10.85;2.28;;;15.30;99.90;;;15.43;66.04;99033.63;4965253;28;20742;-77
2023/01/02 10:37:21;;;;;;;24.02;5.07;;;15.30;99.90;;;15.33;66.45;99045.50;4959039;28;20232;-77
2023/01/02 10:39:50;;;;;;;15.35;3.42;;;15.20;99.90;;;15.23;66.61;99055.56;4956816;28;20311;-77
2023/01/02 10:42:18;;;;;;;13.40;2.97;;;15.10;99.90;;;15.16;67.56;99063.81;4963496;28;20315;-78